Time;durP1;ratioP1;P1;durP2;ratioP2;P2;SDS_P1;SDS_P2;PMS_P1;PMS_P2;Temp;Humidity;BMP_temperature;BMP_pressure;BME280_temperature;BME280_humidity;BME280_pressure;Samples;Min_cycle;Max_cycle;Signal;HPM_P1;HPM_P2
2023/11/12 00:00:32;;;;;;;5.93;2.25;;;;;;;9.65;94.60;99671.84;5032884;28;20029;-72
2023/11/12 00:02:58;;;;;;;3.42;1.92;;;;;;;9.77;94.93;99676.16;5033741;28;20037;-72
2023/11/12 00:05:23;;;;;;;4.32;2.63;;;;;;;9.71;95.07;99681.13;5033480;28;20042;-72
2023/11/12 00:07:49;;;;;;;3.90;2.25;;;;;;;9.80;94.66;99672.72;5032978;28;20057;-72
2023/11/12 00:10:14;;;;;;;6.88;2.30;;;;;;;9.82;93.58;99673.13;5029159;28;20030;-72
2023/11/12 00:12:40;;;;;;;3.88;1.95;;;;;;;9.79;94.16;99674.63;5033718;28;20040;-72
2023/11/12 00:15:06;;;;;;;4.90;2.30;;;;;;;9.77;94.68;99671.56;5033503;28;20033;-72
2023/11/12 00:17:33;;;;;;;4.53;2.75;;;;;;;9.86;93.95;99672.00;5032756;28;20396;-72
2023/11/12 00:20:00;;;;;;;4.25;1.92;;;;;;;9.82;94.71;99683.88;5031931;28;20462;-72
2023/11/12 00:22:28;;;;;;;4.15;2.05;;;;;;;9.80;94.67;99676.19;5034111;28;20095;-72
2023/11/12 00:24:53;;;;;;;3.95;1.95;;;;;;;9.79;94.70;99676.56;5031576;28;20041;-72
2023/11/12 00:27:19;;;;;;;7.72;2.45;;;;;;;9.78;95.06;99675.00;5032947;28;20037;-71
2023/11/12 00:29:44;;;;;;;5.93;3.10;;;;;;;9.84;94.99;99682.38;5013818;28;20095;-72
2023/11/12 00:32:10;;;;;;;5.32;2.35;;;;;;;9.88;94.83;99680.47;5033625;28;20488;-72
2023/11/12 00:34:35;;;;;;;5.38;2.58;;;;;;;9.90;94.13;99682.78;5031786;28;20040;-72
2023/11/12 00:37:01;;;;;;;4.13;2.05;;;;;;;9.85;93.90;99672.41;5031617;28;20455;-72
2023/11/12 00:39:27;;;;;;;3.92;2.10;;;;;;;9.84;94.00;99682.38;5033479;28;20112;-72
2023/11/12 00:41:53;;;;;;;4.93;1.85;;;;;;;9.86;94.90;99669.31;5031432;28;20083;-72
2023/11/12 00:44:18;;;;;;;6.55;2.38;;;;;;;9.87;94.58;99673.53;5029720;28;20079;-72
2023/11/12 00:46:44;;;;;;;3.97;2.05;;;;;;;9.90;94.44;99675.50;5047150;28;20435;-72
2023/11/12 00:49:10;;;;;;;3.40;1.67;;;;;;;9.92;94.61;99667.06;5028922;28;20104;-72
2023/11/12 00:51:36;;;;;;;4.93;2.40;;;;;;;9.79;95.17;99665.81;5031224;28;20036;-72
2023/11/12 00:54:01;;;;;;;5.45;2.35;;;;;;;9.86;94.83;99666.63;5024350;28;20037;-72
2023/11/12 00:56:27;;;;;;;6.20;2.30;;;;;;;9.89;94.43;99665.88;5031460;28;20029;-72
2023/11/12 00:58:53;;;;;;;5.20;1.63;;;;;;;9.90;94.60;99659.38;5013274;28;20041;-72
2023/11/12 01:01:20;;;;;;;5.07;2.67;;;;;;;9.95;94.06;99659.00;5035098;28;20032;-72
2023/11/12 01:03:45;;;;;;;4.15;2.10;;;;;;;9.85;94.05;99646.25;5036017;28;20067;-71
2023/11/12 01:06:10;;;;;;;4.22;2.17;;;;;;;9.79;94.91;99647.00;5024886;28;20045;-72
2023/11/12 01:08:36;;;;;;;5.80;2.60;;;;;;;9.79;95.22;99647.75;5032927;28;20112;-72
2023/11/12 01:11:02;;;;;;;4.15;2.75;;;;;;;9.81;94.36;99655.47;5032565;28;20025;-72
2023/11/12 01:13:27;;;;;;;5.15;2.20;;;;;;;9.86;94.36;99658.56;5032263;28;20041;-72
2023/11/12 01:15:53;;;;;;;4.25;2.70;;;;;;;9.87;94.15;99654.72;5031412;28;20543;-71
2023/11/12 01:18:19;;;;;;;5.00;2.28;;;;;;;9.83;94.49;99645.09;5028476;28;20037;-71
2023/11/12 01:20:45;;;;;;;3.67;2.30;;;;;;;9.87;94.66;99651.28;5030569;28;20072;-72
2023/11/12 01:23:10;;;;;;;4.35;2.17;;;;;;;9.90;93.73;99653.22;5030274;28;20565;-72
2023/11/12 01:25:36;;;;;;;3.60;1.85;;;;;;;9.87;93.99;99651.28;5029830;28;20079;-72
2023/11/12 01:28:02;;;;;;;3.83;2.20;;;;;;;9.85;94.01;99656.25;5049377;28;20519;-71
2023/11/12 01:30:28;;;;;;;5.10;2.40;;;;;;;9.79;94.89;99649.69;5031342;28;20036;-72
2023/11/12 01:32:54;;;;;;;3.95;1.92;;;;;;;9.81;94.96;99656.22;5032673;28;20033;-72
2023/11/12 01:35:19;;;;;;;7.97;2.35;;;;;;;9.92;94.32;99653.59;5029835;28;20695;-72
2023/11/12 01:37:45;;;;;;;4.25;1.83;;;;;;;9.84;94.49;99657.38;5029132;28;20485;-72
2023/11/12 01:40:16;;;;;;;5.28;2.38;;;;;;;9.99;94.31;99667.09;5020471;28;20518;-72
2023/11/12 01:42:45;;;;;;;6.75;1.90;;;;;;;9.97;93.87;99659.41;5030941;28;20043;-72
2023/11/12 01:45:12;;;;;;;3.50;2.35;;;;;;;9.94;93.94;99652.09;5031636;28;20033;-72
2023/11/12 01:47:40;;;;;;;3.17;1.77;;;;;;;9.91;94.21;99660.91;5028772;28;20116;-72
2023/11/12 01:50:07;;;;;;;3.45;2.08;;;;;;;9.93;94.47;99653.22;5029270;28;20063;-72
2023/11/12 01:52:34;;;;;;;4.72;2.67;;;;;;;9.85;94.59;99646.25;5029879;28;20030;-72
2023/11/12 01:55:01;;;;;;;4.00;1.98;;;;;;;9.92;94.97;99656.28;5047650;28;20027;-72
2023/11/12 01:57:28;;;;;;;4.05;1.75;;;;;;;9.88;94.24;99652.81;5031131;28;20138;-72
2023/11/12 01:59:53;;;;;;;4.03;1.80;;;;;;;9.82;94.95;99654.31;5016040;28;20029;-72
2023/11/12 02:02:21;;;;;;;2.63;1.40;;;;;;;9.84;95.52;99641.25;5029321;28;20036;-72
2023/11/12 02:04:48;;;;;;;5.35;1.65;;;;;;;9.87;94.93;99645.91;5026717;28;20040;-72
2023/11/12 02:07:14;;;;;;;6.18;2.17;;;;;;;9.99;93.76;99645.56;5030413;28;20030;-72
2023/11/12 02:09:41;;;;;;;4.53;1.67;;;;;;;9.93;94.24;99641.69;5030433;28;20037;-72
2023/11/12 02:12:07;;;;;;;4.25;2.28;;;;;;;9.93;94.03;99650.53;5029228;28;20037;-72
2023/11/12 02:14:32;;;;;;;4.03;2.15;;;;;;;9.94;94.01;99654.00;5028053;28;20045;-72
2023/11/12 02:16:59;;;;;;;3.53;1.60;;;;;;;9.98;93.80;99646.72;5031318;28;20040;-72
2023/11/12 02:19:26;;;;;;;3.92;1.70;;;;;;;10.01;92.94;99645.97;5029989;28;20032;-72
2023/11/12 02:21:52;;;;;;;2.90;1.50;;;;;;;9.97;93.92;99645.19;5027953;28;20025;-72
2023/11/12 02:24:18;;;;;;;2.92;1.45;;;;;;;9.95;93.45;99647.47;5027904;28;20484;-72
2023/11/12 02:26:46;;;;;;;3.95;2.17;;;;;;;9.90;94.42;99647.84;5028150;28;20083;-71
2023/11/12 02:29:12;;;;;;;6.82;2.22;;;;;;;9.86;94.16;99649.72;5027033;28;20052;-72
2023/11/12 02:31:37;;;;;;;2.90;1.92;;;;;;;9.89;94.01;99649.75;5045771;28;20060;-72
2023/11/12 02:34:03;;;;;;;4.28;1.67;;;;;;;9.97;92.82;99642.50;5029495;28;20029;-72
2023/11/12 02:36:29;;;;;;;2.08;1.70;;;;;;;9.96;93.48;99643.66;5029967;28;20029;-72
2023/11/12 02:38:55;;;;;;;1.80;1.45;;;;;;;9.91;93.87;99649.38;5029435;28;20565;-72
2023/11/12 02:41:22;;;;;;;3.35;2.03;;;;;;;9.97;93.66;99650.56;5028972;28;20076;-72
2023/11/12 02:43:49;;;;;;;3.70;2.03;;;;;;;10.00;93.25;99642.53;5030532;28;20026;-72
2023/11/12 02:46:15;;;;;;;3.25;1.90;;;;;;;9.99;92.96;99646.34;5011295;28;20029;-72
2023/11/12 02:49:10;;;;;;;4.45;2.78;;;;;;;10.04;92.89;99647.94;5030390;28;20038;-72
2023/11/12 02:51:36;;;;;;;4.43;1.85;;;;;;;10.03;93.33;99649.06;5022929;28;20488;-71
2023/11/12 02:54:03;;;;;;;5.35;2.17;;;;;;;10.02;93.16;99644.84;5028321;28;20033;-71
2023/11/12 02:56:28;;;;;;;3.63;1.73;;;;;;;9.98;93.69;99655.59;5024772;28;20415;-71
2023/11/12 02:58:54;;;;;;;4.53;2.03;;;;;;;10.00;93.80;99650.59;5025592;28;20037;-71
2023/11/12 03:01:20;;;;;;;4.18;2.15;;;;;;;9.98;93.92;99655.59;5013249;28;20073;-72
2023/11/12 03:03:45;;;;;;;4.13;1.85;;;;;;;9.95;94.21;99656.31;5030030;28;20032;-72
2023/11/12 03:06:11;;;;;;;2.70;1.35;;;;;;;9.98;93.98;99649.41;5029271;28;20331;-72
2023/11/12 03:08:41;;;;;;;2.10;1.38;;;;;;;9.97;94.35;99655.94;5029174;28;20476;-72
2023/11/12 03:11:09;;;;;;;3.00;1.40;;;;;;;9.94;94.66;99654.00;5029237;28;20068;-71
2023/11/12 03:13:34;;;;;;;5.00;2.63;;;;;;;9.96;94.49;99659.78;5026713;28;20027;-72
2023/11/12 03:16:02;;;;;;;7.10;2.08;;;;;;;9.99;93.57;99667.88;5032622;28;20116;-71
2023/11/12 03:18:28;;;;;;;3.83;2.17;;;;;;;9.97;94.28;99658.63;5026488;28;20314;-72
2023/11/12 03:20:53;;;;;;;4.15;2.30;;;;;;;9.99;95.14;99661.72;5024830;28;20420;-72
2023/11/12 03:23:21;;;;;;;2.22;1.55;;;;;;;10.04;94.24;99658.69;5030471;28;20138;-72
2023/11/12 03:25:46;;;;;;;5.00;1.75;;;;;;;9.98;94.82;99654.81;5028339;28;20124;-72
2023/11/12 03:28:12;;;;;;;5.03;1.85;;;;;;;9.98;93.97;99647.50;5028255;28;20108;-72
2023/11/12 03:30:38;;;;;;;5.80;2.63;;;;;;;9.95;94.59;99644.78;5029010;28;20037;-72
2023/11/12 03:33:03;;;;;;;4.18;1.88;;;;;;;9.96;94.39;99646.34;5029081;28;20040;-72
2023/11/12 03:35:29;;;;;;;5.28;2.55;;;;;;;9.90;95.76;99653.22;5027707;28;20455;-72
2023/11/12 03:37:54;;;;;;;4.88;2.13;;;;;;;9.94;95.55;99654.78;5028999;28;20017;-72
2023/11/12 03:40:20;;;;;;;5.10;1.80;;;;;;;9.96;94.06;99651.72;5029232;28;20045;-71
2023/11/12 03:42:46;;;;;;;2.42;1.58;;;;;;;9.92;95.29;99645.53;5012680;28;20041;-72
2023/11/12 03:45:12;;;;;;;4.18;2.15;;;;;;;9.95;95.73;99647.47;5023767;28;20393;-72
2023/11/12 03:47:37;;;;;;;5.05;2.00;;;;;;;9.98;95.12;99654.81;5027264;28;20438;-72
2023/11/12 03:50:05;;;;;;;4.93;1.65;;;;;;;10.04;94.59;99656.75;5028914;28;20420;-72
2023/11/12 03:52:33;;;;;;;5.70;2.22;;;;;;;10.04;94.08;99653.31;5028468;28;20238;-72
2023/11/12 03:54:58;;;;;;;4.82;2.17;;;;;;;10.02;94.18;99650.22;5030463;28;20492;-72
2023/11/12 03:57:24;;;;;;;3.40;1.92;;;;;;;9.93;94.47;99649.75;5021201;28;20036;-72
2023/11/12 03:59:51;;;;;;;2.97;1.77;;;;;;;9.92;95.08;99653.59;5027470;28;20084;-72
2023/11/12 04:02:18;;;;;;;5.47;2.28;;;;;;;9.94;95.73;99651.31;5028459;28;20060;-71
2023/11/12 04:04:43;;;;;;;6.20;2.63;;;;;;;9.93;95.84;99653.22;5028711;28;20114;-71
2023/11/12 04:07:09;;;;;;;4.97;1.85;;;;;;;10.02;95.86;99655.59;5030044;28;20083;-72
2023/11/12 04:09:34;;;;;;;5.90;2.75;;;;;;;10.06;95.11;99655.63;5028218;28;20116;-71
2023/11/12 04:12:00;;;;;;;4.30;2.55;;;;;;;10.17;94.28;99654.56;5028349;28;20523;-72
2023/11/12 04:14:25;;;;;;;10.27;2.88;;;;;;;10.11;94.28;99657.97;5027932;28;20038;-72
2023/11/12 04:16:51;;;;;;;6.18;2.28;;;;;;;10.13;94.43;99653.75;5029525;28;20037;-72
2023/11/12 04:19:16;;;;;;;7.40;3.05;;;;;;;10.01;95.25;99656.72;5042815;28;20030;-72
2023/11/12 04:21:46;;;;;;;10.18;2.92;;;;;;;10.00;95.40;99655.97;5028939;28;20584;-72
2023/11/12 04:24:11;;;;;;;5.10;1.95;;;;;;;10.02;95.86;99663.66;5027207;28;20029;-72
2023/11/12 04:26:36;;;;;;;6.45;1.63;;;;;;;10.00;96.57;99657.88;5029621;28;20607;-72
2023/11/12 04:29:06;;;;;;;4.82;1.60;;;;;;;10.09;96.07;99660.22;5030108;28;20117;-72
2023/11/12 04:31:35;;;;;;;9.48;2.55;;;;;;;10.10;95.93;99662.59;5022927;28;20492;-72
2023/11/12 04:34:02;;;;;;;5.93;2.08;;;;;;;10.12;95.81;99654.16;5029439;28;20034;-71
2023/11/12 04:36:28;;;;;;;7.40;2.60;;;;;;;10.07;95.82;99655.22;5011608;28;20555;-71
2023/11/12 04:38:57;;;;;;;8.18;3.05;;;;;;;10.06;96.07;99658.31;5033012;28;20029;-72
2023/11/12 04:41:27;;;;;;;3.90;2.35;;;;;;;10.15;95.81;99656.06;5032241;28;20396;-72
2023/11/12 04:43:53;;;;;;;11.00;3.28;;;;;;;10.06;96.37;99661.78;5032649;28;20056;-71
2023/11/12 04:46:20;;;;;;;4.50;2.00;;;;;;;10.13;96.60;99661.84;5028001;28;20038;-71
2023/11/12 04:48:46;;;;;;;5.03;2.63;;;;;;;10.10;96.34;99664.50;5030853;28;20488;-72
2023/11/12 04:51:12;;;;;;;5.63;2.38;;;;;;;10.13;96.72;99667.22;5031572;28;20037;-71
2023/11/12 04:53:39;;;;;;;7.47;2.97;;;;;;;10.17;95.72;99670.69;5031623;28;20038;-72
2023/11/12 04:56:08;;;;;;;6.07;2.67;;;;;;;10.09;96.74;99671.78;5032125;28;20037;-72
2023/11/12 04:58:34;;;;;;;4.57;2.20;;;;;;;10.08;97.02;99664.84;5030615;28;20060;-72
2023/11/12 05:00:59;;;;;;;4.82;2.67;;;;;;;10.02;98.18;99666.34;5032985;28;20473;-72
2023/11/12 05:03:25;;;;;;;12.30;3.85;;;;;;;10.09;98.14;99661.00;5031589;28;20475;-72
2023/11/12 05:05:51;;;;;;;13.55;2.75;;;;;;;10.15;97.07;99659.53;5031813;28;20099;-72
2023/11/12 05:08:16;;;;;;;10.52;3.50;;;;;;;10.16;96.96;99666.47;5032300;28;20484;-72
2023/11/12 05:10:42;;;;;;;7.43;3.58;;;;;;;10.17;97.03;99662.63;5033164;28;20465;-72
2023/11/12 05:13:08;;;;;;;7.75;3.08;;;;;;;10.14;97.90;99668.78;5030446;28;20560;-72
2023/11/12 05:15:34;;;;;;;8.68;2.95;;;;;;;10.20;97.27;99661.13;5031001;28;20026;-72
2023/11/12 05:18:05;;;;;;;6.68;3.22;;;;;;;10.29;96.84;99666.91;5030560;28;20032;-72
2023/11/12 05:20:32;;;;;;;6.30;3.17;;;;;;;10.33;96.79;99671.19;5031168;28;20090;-72
2023/11/12 05:23:02;;;;;;;7.57;2.58;;;;;;;10.24;96.97;99662.66;5032084;28;20021;-72
2023/11/12 05:25:28;;;;;;;5.55;2.58;;;;;;;10.36;96.76;99670.41;5024617;28;20511;-71
2023/11/12 05:27:54;;;;;;;6.57;2.80;;;;;;;10.25;97.16;99669.59;5031081;28;20059;-72
2023/11/12 05:30:20;;;;;;;6.40;3.20;;;;;;;10.23;98.40;99668.41;5032162;28;20029;-71
2023/11/12 05:32:47;;;;;;;8.73;3.47;;;;;;;10.13;97.83;99675.28;5032691;28;20303;-72
2023/11/12 05:35:13;;;;;;;7.05;2.88;;;;;;;10.27;97.95;99675.38;5030290;28;20021;-71
2023/11/12 05:37:38;;;;;;;4.90;2.33;;;;;;;10.31;97.65;99673.47;5031599;28;20577;-72
2023/11/12 05:40:04;;;;;;;5.68;3.15;;;;;;;10.25;97.77;99674.19;5031459;28;20041;-71
2023/11/12 05:42:30;;;;;;;6.72;3.10;;;;;;;10.25;98.03;99683.03;5030490;28;20043;-72
2023/11/12 05:44:55;;;;;;;7.10;3.50;;;;;;;10.29;98.23;99675.78;5030991;28;20127;-71
2023/11/12 05:47:21;;;;;;;6.88;3.42;;;;;;;10.32;98.11;99680.38;5031812;28;20040;-71
2023/11/12 05:49:46;;;;;;;7.85;3.33;;;;;;;10.32;97.92;99677.69;5030236;28;20087;-72
2023/11/12 05:52:12;;;;;;;9.18;3.28;;;;;;;10.33;98.12;99681.16;5032555;28;20037;-71
2023/11/12 05:54:37;;;;;;;6.25;2.80;;;;;;;10.35;98.64;99685.03;5028861;28;20033;-71
2023/11/12 05:57:03;;;;;;;7.25;3.47;;;;;;;10.34;98.44;99678.09;5030667;28;20049;-71
2023/11/12 05:59:28;;;;;;;5.10;2.85;;;;;;;10.34;98.54;99678.09;5029588;28;20104;-71
2023/11/12 06:01:54;;;;;;;7.68;3.30;;;;;;;10.32;98.63;99685.78;5031653;28;20477;-71
2023/11/12 06:04:19;;;;;;;8.38;3.42;;;;;;;10.38;98.57;99695.03;5027666;28;20029;-71
2023/11/12 06:06:45;;;;;;;8.00;3.58;;;;;;;10.38;98.20;99689.66;5029226;28;20041;-71
2023/11/12 06:09:11;;;;;;;7.80;3.55;;;;;;;10.43;98.17;99691.22;5030722;28;20052;-71
2023/11/12 06:11:38;;;;;;;7.97;3.40;;;;;;;10.42;98.60;99693.13;5028406;28;20063;-72
2023/11/12 06:14:04;;;;;;;7.38;3.95;;;;;;;10.41;99.18;99699.69;5031565;28;20041;-71
2023/11/12 06:16:30;;;;;;;8.98;4.03;;;;;;;10.46;98.27;99702.00;5028036;28;20044;-71
2023/11/12 06:18:55;;;;;;;6.70;4.00;;;;;;;10.43;97.91;99697.34;5029581;28;20133;-71
2023/11/12 06:21:21;;;;;;;8.82;3.97;;;;;;;10.40;98.30;99702.72;5030020;28;20033;-71
2023/11/12 06:23:46;;;;;;;9.10;4.15;;;;;;;10.44;98.77;99698.13;5009232;28;20067;-71
2023/11/12 06:26:12;;;;;;;7.38;3.80;;;;;;;10.39;98.59;99704.66;5030302;28;20400;-71
2023/11/12 06:28:38;;;;;;;9.40;3.97;;;;;;;10.45;98.60;99711.19;5030926;28;20021;-71
2023/11/12 06:31:04;;;;;;;6.53;3.55;;;;;;;10.36;98.66;99707.31;5030290;28;20053;-71
2023/11/12 06:33:29;;;;;;;9.57;4.13;;;;;;;10.38;99.18;99711.19;5030358;28;20531;-71
2023/11/12 06:35:55;;;;;;;7.32;3.47;;;;;;;10.43;99.00;99707.38;5031453;28;20056;-71
2023/11/12 06:38:20;;;;;;;7.35;3.97;;;;;;;10.45;98.34;99713.91;5030439;28;20045;-71
2023/11/12 06:40:46;;;;;;;10.38;5.22;;;;;;;10.48;98.50;99715.84;5030146;28;20132;-71
2023/11/12 06:43:11;;;;;;;10.00;4.07;;;;;;;10.56;98.18;99716.66;5022498;28;20067;-71
2023/11/12 06:45:37;;;;;;;7.55;3.85;;;;;;;10.46;98.43;99715.44;5030246;28;20037;-72
2023/11/12 06:48:03;;;;;;;10.10;4.18;;;;;;;10.59;98.02;99716.66;5027873;28;20022;-72
2023/11/12 06:50:28;;;;;;;9.32;4.07;;;;;;;10.51;98.73;99715.09;5026911;28;20033;-72
2023/11/12 06:52:53;;;;;;;8.63;4.00;;;;;;;10.59;98.05;99716.66;5030854;28;20116;-72
2023/11/12 06:55:20;;;;;;;8.55;4.18;;;;;;;10.59;97.68;99722.06;5030116;28;20103;-72
2023/11/12 06:57:47;;;;;;;8.73;3.90;;;;;;;10.46;98.20;99726.22;5015522;28;20037;-72
2023/11/12 07:00:13;;;;;;;8.75;4.28;;;;;;;10.46;99.34;99728.91;5028673;28;20037;-71
2023/11/12 07:02:39;;;;;;;7.93;3.75;;;;;;;10.48;98.91;99732.00;5029059;28;20071;-72
2023/11/12 07:05:05;;;;;;;11.15;4.32;;;;;;;10.60;98.73;99733.59;5027010;28;20134;-72
2023/11/12 07:07:33;;;;;;;8.70;4.03;;;;;;;10.61;98.03;99729.75;5021903;28;20041;-71
2023/11/12 07:09:59;;;;;;;7.78;3.70;;;;;;;10.57;98.21;99737.03;5028547;28;20041;-71
2023/11/12 07:12:25;;;;;;;7.97;4.35;;;;;;;10.59;97.91;99737.44;5026779;28;20025;-72
2023/11/12 07:14:51;;;;;;;9.15;4.20;;;;;;;10.57;98.29;99745.88;5027322;28;20033;-71
2023/11/12 07:17:16;;;;;;;8.30;3.92;;;;;;;10.52;98.89;99743.56;5028890;28;20072;-72
2023/11/12 07:19:42;;;;;;;7.90;3.58;;;;;;;10.55;99.02;99747.44;5025729;28;20021;-71
2023/11/12 07:22:09;;;;;;;8.48;4.70;;;;;;;10.56;99.07;99754.34;5028064;28;20087;-72
2023/11/12 07:24:35;;;;;;;8.15;4.57;;;;;;;10.55;99.48;99763.59;5021114;28;20081;-71
2023/11/12 07:27:01;;;;;;;7.05;3.85;;;;;;;10.59;99.51;99758.97;5024417;28;20021;-72
2023/11/12 07:29:27;;;;;;;10.35;4.15;;;;;;;10.68;98.97;99765.53;5021660;28;20029;-72
2023/11/12 07:31:57;;;;;;;8.40;4.07;;;;;;;10.70;98.40;99767.88;5027880;28;20046;-72
2023/11/12 07:34:22;;;;;;;7.90;4.25;;;;;;;10.65;98.27;99763.63;5030068;28;20043;-72
2023/11/12 07:36:48;;;;;;;7.70;4.03;;;;;;;10.70;98.51;99757.88;5028087;28;20120;-72
2023/11/12 07:39:14;;;;;;;8.60;4.60;;;;;;;10.70;98.97;99755.19;5027577;28;20480;-72
2023/11/12 07:41:39;;;;;;;8.40;4.15;;;;;;;10.60;98.87;99750.53;5029050;28;20091;-72
2023/11/12 07:44:05;;;;;;;9.35;3.80;;;;;;;10.67;98.73;99755.94;5028868;28;20040;-72
2023/11/12 07:46:31;;;;;;;6.55;3.58;;;;;;;10.71;98.58;99759.44;5021292;28;20516;-72
2023/11/12 07:48:57;;;;;;;8.77;4.32;;;;;;;10.72;98.92;99758.25;5025782;28;20029;-72
2023/11/12 07:51:22;;;;;;;8.52;4.30;;;;;;;10.80;98.19;99757.16;5026933;28;20025;-73
2023/11/12 07:53:48;;;;;;;6.82;3.38;;;;;;;10.79;97.74;99752.16;5029845;28;20568;-72
2023/11/12 07:56:14;;;;;;;6.70;3.70;;;;;;;10.81;97.67;99761.41;5027309;28;20037;-72
2023/11/12 07:58:40;;;;;;;8.95;4.80;;;;;;;10.77;97.75;99760.63;5027218;28;20462;-72
2023/11/12 08:01:05;;;;;;;11.98;4.40;;;;;;;10.71;97.67;99762.13;5028769;28;20037;-72
2023/11/12 08:03:32;;;;;;;9.90;4.97;;;;;;;10.74;98.38;99763.28;5041054;28;20041;-72
2023/11/12 08:05:58;;;;;;;10.43;4.28;;;;;;;10.75;98.15;99768.28;5027701;28;20377;-72
2023/11/12 08:08:24;;;;;;;10.13;4.20;;;;;;;10.73;97.95;99770.59;5021605;28;20025;-72
2023/11/12 08:10:49;;;;;;;12.98;4.97;;;;;;;10.80;97.69;99769.88;5029386;28;20029;-72
2023/11/12 08:13:15;;;;;;;9.18;4.55;;;;;;;10.74;97.75;99771.38;5030588;28;20493;-71
2023/11/12 08:15:41;;;;;;;9.85;4.47;;;;;;;10.75;97.69;99778.28;5025986;28;20546;-73
2023/11/12 08:18:07;;;;;;;9.90;5.28;;;;;;;10.84;97.45;99776.03;5030861;28;20500;-72
2023/11/12 08:20:34;;;;;;;8.57;4.53;;;;;;;10.89;97.17;99775.66;5032589;28;20030;-72
2023/11/12 08:23:00;;;;;;;11.00;4.93;;;;;;;10.77;97.71;99778.69;5015541;28;20166;-72
2023/11/12 08:25:25;;;;;;;10.73;5.47;;;;;;;10.67;97.60;99772.09;5026053;28;20057;-72
2023/11/12 08:27:51;;;;;;;8.45;4.88;;;;;;;10.72;98.36;99769.03;5029557;28;20504;-72
2023/11/12 08:30:17;;;;;;;10.02;4.82;;;;;;;10.69;98.51;99775.19;5027132;28;20037;-72
2023/11/12 08:32:43;;;;;;;9.93;4.32;;;;;;;10.71;97.96;99783.66;5025214;28;20087;-72
2023/11/12 08:35:09;;;;;;;10.48;5.22;;;;;;;10.72;98.03;99779.06;5029346;28;20119;-72
2023/11/12 08:37:37;;;;;;;11.23;5.18;;;;;;;10.75;97.86;99783.69;5027802;28;20037;-72
2023/11/12 08:40:04;;;;;;;9.95;4.95;;;;;;;10.78;97.06;99791.00;5025693;28;20033;-72
2023/11/12 08:42:30;;;;;;;11.52;5.55;;;;;;;10.67;97.74;99784.78;5028772;28;20053;-72
2023/11/12 08:44:56;;;;;;;9.98;5.35;;;;;;;10.70;97.80;99790.19;5028317;28;20033;-72
2023/11/12 08:47:23;;;;;;;10.68;4.82;;;;;;;10.78;97.60;99793.72;5030343;28;20444;-72
2023/11/12 08:49:48;;;;;;;9.68;4.80;;;;;;;10.75;97.51;99797.13;5031790;28;20036;-73
2023/11/12 08:52:17;;;;;;;11.10;5.40;;;;;;;10.74;97.80;99804.44;5035090;28;20029;-72
2023/11/12 08:54:43;;;;;;;12.82;6.03;;;;;;;10.74;98.06;99798.31;5027042;28;20060;-72
2023/11/12 08:57:11;;;;;;;8.88;4.35;;;;;;;10.69;98.02;99799.41;5029708;28;20075;-72
2023/11/12 08:59:37;;;;;;;9.40;4.20;;;;;;;10.77;97.81;99814.47;5030007;28;20041;-72
2023/11/12 09:02:03;;;;;;;8.48;4.40;;;;;;;10.72;98.24;99808.69;5025761;28;20030;-72
2023/11/12 09:04:28;;;;;;;7.55;3.75;;;;;;;10.75;97.85;99807.91;5011207;28;21484;-72
2023/11/12 09:06:57;;;;;;;10.18;4.95;;;;;;;10.83;97.28;99807.59;5029344;28;20550;-73
2023/11/12 09:09:22;;;;;;;11.38;4.80;;;;;;;10.85;96.69;99807.97;5043934;28;20029;-72
2023/11/12 09:11:48;;;;;;;12.93;4.95;;;;;;;10.76;97.26;99815.59;5029057;28;20132;-72
2023/11/12 09:14:15;;;;;;;8.55;4.65;;;;;;;10.73;96.97;99811.00;5031078;28;20034;-72
2023/11/12 09:16:46;;;;;;;11.20;4.05;;;;;;;10.79;97.33;99816.78;5026482;28;20044;-72
2023/11/12 09:19:12;;;;;;;10.13;4.38;;;;;;;10.87;97.23;99821.06;5022304;28;20036;-71
2023/11/12 09:21:38;;;;;;;13.70;5.15;;;;;;;10.87;96.86;99819.16;5026130;28;20416;-72
2023/11/12 09:24:04;;;;;;;9.60;4.53;;;;;;;10.88;96.72;99815.28;5027496;28;20022;-72
2023/11/12 09:26:29;;;;;;;10.32;4.82;;;;;;;10.87;96.72;99824.53;5023664;28;20053;-71
2023/11/12 09:28:55;;;;;;;7.80;4.38;;;;;;;10.88;96.35;99831.47;5027957;28;20570;-71
2023/11/12 09:31:20;;;;;;;6.85;3.33;;;;;;;10.96;96.24;99829.56;5027240;28;20476;-71
2023/11/12 09:33:47;;;;;;;9.18;4.70;;;;;;;10.92;96.16;99833.41;5026828;28;20037;-72
2023/11/12 09:36:13;;;;;;;12.48;4.28;;;;;;;10.97;95.78;99838.44;5029518;28;20040;-71
2023/11/12 09:38:39;;;;;;;7.35;3.67;;;;;;;10.99;96.17;99841.53;5040439;28;20102;-72
2023/11/12 09:41:06;;;;;;;7.72;3.75;;;;;;;10.96;95.44;99832.25;5028328;28;20033;-72
2023/11/12 09:43:32;;;;;;;7.60;3.22;;;;;;;11.02;95.51;99840.75;5026191;28;20428;-71
2023/11/12 09:45:58;;;;;;;8.48;3.50;;;;;;;11.04;94.19;99839.25;5025614;28;20413;-71
2023/11/12 09:48:35;;;;;;;10.23;5.10;;;;;;;10.95;95.17;99846.13;5024795;28;20036;-71
2023/11/12 09:51:11;;;;;;;6.25;3.45;;;;;;;10.85;95.29;99837.59;5025298;28;20492;-71
2023/11/12 09:53:47;;;;;;;7.47;4.15;;;;;;;10.90;95.14;99844.53;5023704;28;20037;-72
2023/11/12 09:56:13;;;;;;;7.85;3.78;;;;;;;10.88;94.71;99836.84;5027496;28;20625;-70
2023/11/12 09:58:44;;;;;;;17.27;5.13;;;;;;;10.87;95.00;99843.41;5028721;28;20605;-71
2023/11/12 10:01:16;;;;;;;9.40;4.38;;;;;;;10.88;95.76;99846.84;5026234;28;20496;-72
2023/11/12 10:03:47;;;;;;;8.25;4.30;;;;;;;10.97;95.72;99843.81;5027976;28;20040;-71
2023/11/12 10:06:13;;;;;;;6.70;3.75;;;;;;;10.95;96.14;99838.81;5027425;28;20488;-71
2023/11/12 10:08:39;;;;;;;10.98;4.70;;;;;;;11.12;95.66;99837.34;5030555;28;20030;-71
2023/11/12 10:11:24;;;;;;;10.10;4.65;;;;;;;11.25;95.12;99841.25;5018202;28;20251;-71
2023/11/12 10:13:56;;;;;;;10.45;4.32;;;;;;;11.36;95.21;99834.00;5006246;28;20037;-71
2023/11/12 10:16:26;;;;;;;9.13;3.85;;;;;;;11.37;95.56;99840.91;5029068;28;20084;-71
2023/11/12 10:18:52;;;;;;;7.90;4.13;;;;;;;11.42;95.50;99827.84;5012166;28;20484;-71
2023/11/12 10:21:21;;;;;;;8.75;4.40;;;;;;;11.53;95.78;99838.66;5032574;28;20040;-72
2023/11/12 10:24:04;;;;;;;9.68;4.65;;;;;;;11.79;95.61;99828.34;5030865;28;20468;-73
2023/11/12 10:26:33;;;;;;;8.35;4.63;;;;;;;11.97;94.26;99831.09;5004157;28;20048;-72
2023/11/12 10:28:58;;;;;;;10.95;4.90;;;;;;;12.04;94.13;99830.31;5028215;28;20017;-72
2023/11/12 10:31:37;;;;;;;12.65;5.28;;;;;;;11.99;93.34;99826.06;5029758;28;20048;-72
2023/11/12 10:34:03;;;;;;;11.65;5.10;;;;;;;11.92;93.52;99828.00;5029898;28;20041;-72
2023/11/12 10:36:28;;;;;;;8.45;3.83;;;;;;;11.94;92.81;99831.09;5029734;28;20029;-71
2023/11/12 10:38:54;;;;;;;9.40;4.82;;;;;;;11.83;92.70;99820.25;5029717;28;20443;-71
2023/11/12 10:41:20;;;;;;;11.73;4.70;;;;;;;11.76;93.34;99831.84;5025113;28;20029;-72
2023/11/12 10:43:57;;;;;;;9.65;4.97;;;;;;;11.84;93.86;99837.22;5027798;28;20036;-71
2023/11/12 10:46:24;;;;;;;10.35;4.47;;;;;;;11.81;94.24;99836.06;5027664;28;20033;-72
2023/11/12 10:48:51;;;;;;;8.10;4.28;;;;;;;11.72;92.21;99832.97;5024428;28;20294;-71
2023/11/12 10:51:18;;;;;;;7.72;4.10;;;;;;;11.60;93.09;99841.38;5026659;28;20033;-72
2023/11/12 10:53:45;;;;;;;9.45;4.00;;;;;;;11.48;94.47;99839.03;5027228;28;20044;-71
2023/11/12 10:56:11;;;;;;;9.40;4.43;;;;;;;11.56;94.31;99840.59;5028621;28;20404;-71
2023/11/12 10:58:37;;;;;;;8.45;4.45;;;;;;;11.50;94.45;99842.88;5025853;28;20033;-72
2023/11/12 11:01:04;;;;;;;7.95;3.90;;;;;;;11.42;94.45;99841.31;5023621;28;20036;-71
2023/11/12 11:03:32;;;;;;;10.82;4.85;;;;;;;11.35;94.08;99843.22;5024843;28;20079;-72
2023/11/12 11:06:01;;;;;;;6.18;3.72;;;;;;;11.21;95.19;99843.94;5026248;28;20026;-71
2023/11/12 11:08:28;;;;;;;8.63;3.95;;;;;;;11.17;96.44;99848.53;5027462;28;20052;-72
2023/11/12 11:10:54;;;;;;;9.05;3.78;;;;;;;11.25;95.33;99839.34;5026346;28;20048;-71
2023/11/12 11:13:21;;;;;;;12.15;4.72;;;;;;;11.27;95.27;99841.63;5018670;28;20025;-71
2023/11/12 11:15:52;;;;;;;12.60;5.40;;;;;;;11.28;95.35;99843.19;5027514;28;20091;-71
2023/11/12 11:18:35;;;;;;;8.48;4.60;;;;;;;11.23;95.43;99840.84;5025985;28;20041;-71
2023/11/12 11:21:14;;;;;;;10.20;4.70;;;;;;;11.17;96.34;99847.78;5024169;28;20096;-71
2023/11/12 11:23:49;;;;;;;9.68;4.75;;;;;;;11.17;96.45;99842.38;5023677;28;20099;-71
2023/11/12 11:26:24;;;;;;;7.63;4.22;;;;;;;11.25;94.91;99844.72;5025536;28;20029;-71
2023/11/12 11:29:04;;;;;;;9.80;4.50;;;;;;;11.24;95.17;99837.03;5025428;28;20031;-71
2023/11/12 11:31:53;;;;;;;9.13;4.55;;;;;;;11.13;96.25;99839.66;5027532;28;20045;-71